sensor_id;sensor_type;location;lat;lon;timestamp;P1;durP1;ratioP1;P2;durP2;ratioP2
19919;SDS011;10122;50.074;19.920;2023-03-14T00:00:22;5.75;;;2.17;;
19919;SDS011;10122;50.074;19.920;2023-03-14T00:02:51;4.22;;;2.28;;
19919;SDS011;10122;50.074;19.920;2023-03-14T00:05:18;4.65;;;2.40;;
19919;SDS011;10122;50.074;19.920;2023-03-14T00:07:44;6.55;;;2.13;;
19919;SDS011;10122;50.074;19.920;2023-03-14T00:10:11;5.47;;;1.98;;
19919;SDS011;10122;50.074;19.920;2023-03-14T00:12:38;4.93;;;2.30;;
19919;SDS011;10122;50.074;19.920;2023-03-14T00:15:05;3.17;;;2.10;;
19919;SDS011;10122;50.074;19.920;2023-03-14T00:17:32;3.55;;;2.20;;
19919;SDS011;10122;50.074;19.920;2023-03-14T00:19:59;5.72;;;2.40;;
19919;SDS011;10122;50.074;19.920;2023-03-14T00:22:30;4.50;;;2.13;;
19919;SDS011;10122;50.074;19.920;2023-03-14T00:24:56;2.67;;;1.83;;
19919;SDS011;10122;50.074;19.920;2023-03-14T00:27:22;3.92;;;2.03;;
19919;SDS011;10122;50.074;19.920;2023-03-14T00:29:48;2.92;;;1.95;;
19919;SDS011;10122;50.074;19.920;2023-03-14T00:32:13;4.00;;;2.00;;
19919;SDS011;10122;50.074;19.920;2023-03-14T00:34:39;3.42;;;2.00;;
19919;SDS011;10122;50.074;19.920;2023-03-14T00:37:05;3.70;;;1.80;;
19919;SDS011;10122;50.074;19.920;2023-03-14T00:39:31;3.72;;;2.08;;
19919;SDS011;10122;50.074;19.920;2023-03-14T00:41:56;3.40;;;2.00;;
19919;SDS011;10122;50.074;19.920;2023-03-14T00:44:22;5.03;;;1.90;;
19919;SDS011;10122;50.074;19.920;2023-03-14T00:46:49;3.05;;;1.90;;
19919;SDS011;10122;50.074;19.920;2023-03-14T00:49:14;4.68;;;2.00;;
19919;SDS011;10122;50.074;19.920;2023-03-14T00:51:40;3.28;;;1.90;;
19919;SDS011;10122;50.074;19.920;2023-03-14T00:54:06;3.95;;;1.95;;
19919;SDS011;10122;50.074;19.920;2023-03-14T00:56:32;4.47;;;1.90;;
19919;SDS011;10122;50.074;19.920;2023-03-14T00:58:57;3.95;;;1.83;;
19919;SDS011;10122;50.074;19.920;2023-03-14T01:01:23;4.72;;;1.95;;
19919;SDS011;10122;50.074;19.920;2023-03-14T01:03:52;2.92;;;1.73;;
19919;SDS011;10122;50.074;19.920;2023-03-14T01:06:23;4.25;;;1.85;;
19919;SDS011;10122;50.074;19.920;2023-03-14T01:08:51;4.40;;;2.10;;
19919;SDS011;10122;50.074;19.920;2023-03-14T01:11:19;4.70;;;1.80;;
19919;SDS011;10122;50.074;19.920;2023-03-14T01:13:47;5.53;;;1.83;;
19919;SDS011;10122;50.074;19.920;2023-03-14T01:16:13;2.17;;;1.67;;
19919;SDS011;10122;50.074;19.920;2023-03-14T01:18:40;3.60;;;1.80;;
19919;SDS011;10122;50.074;19.920;2023-03-14T01:21:16;3.28;;;1.73;;
19919;SDS011;10122;50.074;19.920;2023-03-14T01:23:43;2.85;;;1.60;;
19919;SDS011;10122;50.074;19.920;2023-03-14T01:26:11;1.73;;;1.23;;
19919;SDS011;10122;50.074;19.920;2023-03-14T01:28:38;4.07;;;1.67;;
19919;SDS011;10122;50.074;19.920;2023-03-14T01:31:04;3.50;;;1.80;;
19919;SDS011;10122;50.074;19.920;2023-03-14T01:33:32;3.60;;;1.83;;
19919;SDS011;10122;50.074;19.920;2023-03-14T01:35:58;1.60;;;1.30;;
19919;SDS011;10122;50.074;19.920;2023-03-14T01:38:27;3.53;;;2.00;;
19919;SDS011;10122;50.074;19.920;2023-03-14T01:40:53;2.42;;;1.70;;
19919;SDS011;10122;50.074;19.920;2023-03-14T01:43:19;1.65;;;1.42;;
19919;SDS011;10122;50.074;19.920;2023-03-14T01:48:40;4.32;;;2.03;;
19919;SDS011;10122;50.074;19.920;2023-03-14T01:51:15;4.47;;;1.90;;
19919;SDS011;10122;50.074;19.920;2023-03-14T01:53:47;4.38;;;2.00;;
19919;SDS011;10122;50.074;19.920;2023-03-14T01:56:16;5.43;;;2.08;;
19919;SDS011;10122;50.074;19.920;2023-03-14T01:58:44;4.97;;;2.10;;
19919;SDS011;10122;50.074;19.920;2023-03-14T02:01:13;4.25;;;1.90;;
19919;SDS011;10122;50.074;19.920;2023-03-14T02:03:47;3.05;;;1.80;;
19919;SDS011;10122;50.074;19.920;2023-03-14T02:06:18;5.15;;;2.10;;
19919;SDS011;10122;50.074;19.920;2023-03-14T02:08:47;2.60;;;1.90;;
19919;SDS011;10122;50.074;19.920;2023-03-14T02:11:14;2.58;;;1.75;;
19919;SDS011;10122;50.074;19.920;2023-03-14T02:13:41;4.28;;;1.33;;
19919;SDS011;10122;50.074;19.920;2023-03-14T02:16:08;3.33;;;1.85;;
19919;SDS011;10122;50.074;19.920;2023-03-14T02:18:34;4.55;;;2.20;;
19919;SDS011;10122;50.074;19.920;2023-03-14T02:23:39;3.08;;;1.83;;
19919;SDS011;10122;50.074;19.920;2023-03-14T02:26:40;4.25;;;2.05;;
19919;SDS011;10122;50.074;19.920;2023-03-14T02:29:26;5.03;;;2.10;;
19919;SDS011;10122;50.074;19.920;2023-03-14T02:31:53;4.35;;;2.30;;
19919;SDS011;10122;50.074;19.920;2023-03-14T02:34:18;4.10;;;2.38;;
19919;SDS011;10122;50.074;19.920;2023-03-14T02:36:44;3.88;;;2.10;;
19919;SDS011;10122;50.074;19.920;2023-03-14T02:39:15;3.95;;;1.90;;
19919;SDS011;10122;50.074;19.920;2023-03-14T02:41:46;3.15;;;2.50;;
19919;SDS011;10122;50.074;19.920;2023-03-14T02:44:14;3.75;;;2.38;;
19919;SDS011;10122;50.074;19.920;2023-03-14T02:46:40;4.25;;;2.30;;
19919;SDS011;10122;50.074;19.920;2023-03-14T02:49:12;5.18;;;2.38;;
19919;SDS011;10122;50.074;19.920;2023-03-14T02:51:39;3.88;;;2.20;;
19919;SDS011;10122;50.074;19.920;2023-03-14T02:54:08;3.55;;;2.30;;
19919;SDS011;10122;50.074;19.920;2023-03-14T02:56:34;4.18;;;2.10;;
19919;SDS011;10122;50.074;19.920;2023-03-14T02:59:02;3.67;;;2.20;;
19919;SDS011;10122;50.074;19.920;2023-03-14T03:01:28;3.63;;;2.15;;
19919;SDS011;10122;50.074;19.920;2023-03-14T03:03:54;4.32;;;2.30;;
19919;SDS011;10122;50.074;19.920;2023-03-14T03:06:20;3.85;;;2.20;;
19919;SDS011;10122;50.074;19.920;2023-03-14T03:08:45;3.35;;;2.33;;
19919;SDS011;10122;50.074;19.920;2023-03-14T03:11:11;4.13;;;2.53;;
19919;SDS011;10122;50.074;19.920;2023-03-14T03:13:37;4.72;;;2.40;;
19919;SDS011;10122;50.074;19.920;2023-03-14T03:16:03;3.97;;;2.35;;
19919;SDS011;10122;50.074;19.920;2023-03-14T03:18:29;3.30;;;2.30;;
19919;SDS011;10122;50.074;19.920;2023-03-14T03:20:55;3.58;;;2.20;;
19919;SDS011;10122;50.074;19.920;2023-03-14T03:23:24;4.28;;;2.00;;
19919;SDS011;10122;50.074;19.920;2023-03-14T03:25:50;3.17;;;1.88;;
19919;SDS011;10122;50.074;19.920;2023-03-14T03:28:16;3.33;;;2.00;;
19919;SDS011;10122;50.074;19.920;2023-03-14T03:30:42;3.35;;;2.13;;
19919;SDS011;10122;50.074;19.920;2023-03-14T03:33:09;3.80;;;2.30;;
19919;SDS011;10122;50.074;19.920;2023-03-14T03:35:41;3.40;;;2.20;;
19919;SDS011;10122;50.074;19.920;2023-03-14T03:38:08;5.60;;;2.15;;
19919;SDS011;10122;50.074;19.920;2023-03-14T03:40:34;4.57;;;2.40;;
19919;SDS011;10122;50.074;19.920;2023-03-14T03:42:59;4.95;;;2.25;;
19919;SDS011;10122;50.074;19.920;2023-03-14T03:45:25;6.07;;;2.58;;
19919;SDS011;10122;50.074;19.920;2023-03-14T03:47:51;4.28;;;2.30;;
19919;SDS011;10122;50.074;19.920;2023-03-14T03:50:17;6.05;;;2.20;;
19919;SDS011;10122;50.074;19.920;2023-03-14T03:52:42;3.90;;;2.47;;
19919;SDS011;10122;50.074;19.920;2023-03-14T03:55:08;4.88;;;2.60;;
19919;SDS011;10122;50.074;19.920;2023-03-14T03:57:34;4.03;;;2.35;;
19919;SDS011;10122;50.074;19.920;2023-03-14T04:00:00;4.65;;;2.33;;
19919;SDS011;10122;50.074;19.920;2023-03-14T04:02:26;4.97;;;2.30;;
19919;SDS011;10122;50.074;19.920;2023-03-14T04:04:51;5.00;;;2.47;;
19919;SDS011;10122;50.074;19.920;2023-03-14T04:07:17;3.88;;;2.42;;
19919;SDS011;10122;50.074;19.920;2023-03-14T04:09:43;5.13;;;2.53;;
19919;SDS011;10122;50.074;19.920;2023-03-14T04:12:08;4.68;;;2.50;;
19919;SDS011;10122;50.074;19.920;2023-03-14T04:14:36;3.78;;;2.30;;
19919;SDS011;10122;50.074;19.920;2023-03-14T04:17:01;4.20;;;2.35;;
19919;SDS011;10122;50.074;19.920;2023-03-14T04:19:27;4.45;;;2.50;;
19919;SDS011;10122;50.074;19.920;2023-03-14T04:21:53;4.75;;;2.55;;
19919;SDS011;10122;50.074;19.920;2023-03-14T04:24:18;3.90;;;2.58;;
19919;SDS011;10122;50.074;19.920;2023-03-14T04:26:44;3.80;;;2.40;;
19919;SDS011;10122;50.074;19.920;2023-03-14T04:29:10;4.28;;;2.60;;
19919;SDS011;10122;50.074;19.920;2023-03-14T04:31:36;3.80;;;2.38;;
19919;SDS011;10122;50.074;19.920;2023-03-14T04:34:02;4.80;;;2.45;;
19919;SDS011;10122;50.074;19.920;2023-03-14T04:36:27;6.72;;;2.60;;
19919;SDS011;10122;50.074;19.920;2023-03-14T04:38:53;4.70;;;2.63;;
19919;SDS011;10122;50.074;19.920;2023-03-14T04:41:19;5.97;;;2.72;;
19919;SDS011;10122;50.074;19.920;2023-03-14T04:43:44;5.47;;;2.95;;
19919;SDS011;10122;50.074;19.920;2023-03-14T04:46:10;5.15;;;2.72;;
19919;SDS011;10122;50.074;19.920;2023-03-14T04:48:36;6.45;;;2.63;;
19919;SDS011;10122;50.074;19.920;2023-03-14T04:51:03;7.53;;;2.67;;
19919;SDS011;10122;50.074;19.920;2023-03-14T04:53:29;6.20;;;2.90;;
19919;SDS011;10122;50.074;19.920;2023-03-14T04:55:55;5.43;;;2.80;;
19919;SDS011;10122;50.074;19.920;2023-03-14T04:58:22;5.85;;;2.75;;
19919;SDS011;10122;50.074;19.920;2023-03-14T05:00:48;7.40;;;3.20;;
19919;SDS011;10122;50.074;19.920;2023-03-14T05:03:14;6.97;;;3.55;;
19919;SDS011;10122;50.074;19.920;2023-03-14T05:05:41;8.30;;;3.60;;
19919;SDS011;10122;50.074;19.920;2023-03-14T05:08:07;6.55;;;3.42;;
19919;SDS011;10122;50.074;19.920;2023-03-14T05:10:32;6.95;;;3.92;;
19919;SDS011;10122;50.074;19.920;2023-03-14T05:12:58;6.85;;;4.13;;
19919;SDS011;10122;50.074;19.920;2023-03-14T05:15:24;8.23;;;4.60;;
19919;SDS011;10122;50.074;19.920;2023-03-14T05:17:50;9.20;;;4.93;;
19919;SDS011;10122;50.074;19.920;2023-03-14T05:20:15;8.20;;;4.65;;
19919;SDS011;10122;50.074;19.920;2023-03-14T05:22:41;8.18;;;4.80;;
19919;SDS011;10122;50.074;19.920;2023-03-14T05:25:07;8.55;;;4.75;;
19919;SDS011;10122;50.074;19.920;2023-03-14T05:27:34;8.80;;;4.57;;
19919;SDS011;10122;50.074;19.920;2023-03-14T05:30:00;6.97;;;3.78;;
19919;SDS011;10122;50.074;19.920;2023-03-14T05:32:27;8.25;;;4.30;;
19919;SDS011;10122;50.074;19.920;2023-03-14T05:34:53;8.90;;;4.18;;
19919;SDS011;10122;50.074;19.920;2023-03-14T05:37:23;6.85;;;4.00;;
19919;SDS011;10122;50.074;19.920;2023-03-14T05:39:49;5.68;;;3.47;;
19919;SDS011;10122;50.074;19.920;2023-03-14T05:42:14;6.57;;;3.88;;
19919;SDS011;10122;50.074;19.920;2023-03-14T05:44:40;10.43;;;4.45;;
19919;SDS011;10122;50.074;19.920;2023-03-14T05:47:06;10.02;;;4.50;;
19919;SDS011;10122;50.074;19.920;2023-03-14T05:49:31;8.88;;;4.40;;
19919;SDS011;10122;50.074;19.920;2023-03-14T05:51:57;11.98;;;4.57;;
19919;SDS011;10122;50.074;19.920;2023-03-14T05:54:23;8.93;;;4.45;;
19919;SDS011;10122;50.074;19.920;2023-03-14T05:56:48;8.15;;;4.10;;
19919;SDS011;10122;50.074;19.920;2023-03-14T05:59:14;9.45;;;4.63;;
19919;SDS011;10122;50.074;19.920;2023-03-14T06:01:40;9.07;;;4.30;;
19919;SDS011;10122;50.074;19.920;2023-03-14T06:04:06;9.40;;;4.53;;
19919;SDS011;10122;50.074;19.920;2023-03-14T06:06:31;7.28;;;4.28;;
19919;SDS011;10122;50.074;19.920;2023-03-14T06:08:57;9.50;;;4.38;;
19919;SDS011;10122;50.074;19.920;2023-03-14T06:11:23;8.90;;;4.03;;
19919;SDS011;10122;50.074;19.920;2023-03-14T06:13:48;11.55;;;4.82;;
19919;SDS011;10122;50.074;19.920;2023-03-14T06:16:14;10.45;;;5.05;;
19919;SDS011;10122;50.074;19.920;2023-03-14T06:18:40;10.77;;;4.78;;
19919;SDS011;10122;50.074;19.920;2023-03-14T06:21:06;12.45;;;4.68;;
19919;SDS011;10122;50.074;19.920;2023-03-14T06:23:32;9.00;;;4.70;;
19919;SDS011;10122;50.074;19.920;2023-03-14T06:25:57;10.75;;;4.45;;
19919;SDS011;10122;50.074;19.920;2023-03-14T06:28:23;10.32;;;4.55;;
19919;SDS011;10122;50.074;19.920;2023-03-14T06:30:49;11.27;;;4.47;;
19919;SDS011;10122;50.074;19.920;2023-03-14T06:33:14;7.40;;;4.40;;
19919;SDS011;10122;50.074;19.920;2023-03-14T06:35:40;7.55;;;4.30;;
19919;SDS011;10122;50.074;19.920;2023-03-14T06:38:06;10.50;;;5.03;;
19919;SDS011;10122;50.074;19.920;2023-03-14T06:40:32;10.15;;;4.95;;
19919;SDS011;10122;50.074;19.920;2023-03-14T06:42:57;10.57;;;5.10;;
19919;SDS011;10122;50.074;19.920;2023-03-14T06:45:23;11.98;;;5.50;;
19919;SDS011;10122;50.074;19.920;2023-03-14T06:47:49;15.90;;;5.28;;
19919;SDS011;10122;50.074;19.920;2023-03-14T06:50:14;13.82;;;5.30;;
19919;SDS011;10122;50.074;19.920;2023-03-14T06:52:40;13.70;;;5.00;;
19919;SDS011;10122;50.074;19.920;2023-03-14T06:55:11;12.32;;;5.20;;
19919;SDS011;10122;50.074;19.920;2023-03-14T06:57:36;14.48;;;5.35;;
19919;SDS011;10122;50.074;19.920;2023-03-14T07:00:03;9.38;;;5.10;;
19919;SDS011;10122;50.074;19.920;2023-03-14T07:02:29;8.82;;;4.80;;
19919;SDS011;10122;50.074;19.920;2023-03-14T07:04:55;10.88;;;5.45;;
19919;SDS011;10122;50.074;19.920;2023-03-14T07:07:21;13.05;;;5.07;;
19919;SDS011;10122;50.074;19.920;2023-03-14T07:09:46;13.30;;;5.40;;
19919;SDS011;10122;50.074;19.920;2023-03-14T07:12:12;11.48;;;5.18;;
19919;SDS011;10122;50.074;19.920;2023-03-14T07:14:38;12.70;;;5.30;;
19919;SDS011;10122;50.074;19.920;2023-03-14T07:17:03;14.38;;;6.55;;
19919;SDS011;10122;50.074;19.920;2023-03-14T07:19:29;14.80;;;7.25;;
19919;SDS011;10122;50.074;19.920;2023-03-14T07:21:55;17.35;;;6.72;;
19919;SDS011;10122;50.074;19.920;2023-03-14T07:24:21;14.65;;;5.55;;
19919;SDS011;10122;50.074;19.920;2023-03-14T07:26:46;10.82;;;5.45;;
19919;SDS011;10122;50.074;19.920;2023-03-14T07:29:12;10.73;;;6.00;;
19919;SDS011;10122;50.074;19.920;2023-03-14T07:31:38;11.23;;;6.10;;
19919;SDS011;10122;50.074;19.920;2023-03-14T07:34:03;14.10;;;6.38;;
19919;SDS011;10122;50.074;19.920;2023-03-14T07:36:29;17.30;;;6.60;;
19919;SDS011;10122;50.074;19.920;2023-03-14T07:38:55;11.52;;;6.32;;
19919;SDS011;10122;50.074;19.920;2023-03-14T07:41:20;15.15;;;7.18;;
19919;SDS011;10122;50.074;19.920;2023-03-14T07:43:48;19.75;;;7.13;;
19919;SDS011;10122;50.074;19.920;2023-03-14T07:46:14;16.65;;;6.82;;
19919;SDS011;10122;50.074;19.920;2023-03-14T07:48:40;14.10;;;6.43;;
19919;SDS011;10122;50.074;19.920;2023-03-14T07:51:06;13.85;;;6.75;;
19919;SDS011;10122;50.074;19.920;2023-03-14T07:53:32;10.75;;;4.43;;
19919;SDS011;10122;50.074;19.920;2023-03-14T07:55:58;12.05;;;4.97;;
19919;SDS011;10122;50.074;19.920;2023-03-14T07:58:23;9.93;;;4.40;;
19919;SDS011;10122;50.074;19.920;2023-03-14T08:00:50;8.90;;;3.92;;
19919;SDS011;10122;50.074;19.920;2023-03-14T08:03:16;7.32;;;3.75;;
19919;SDS011;10122;50.074;19.920;2023-03-14T08:05:42;11.18;;;4.20;;
19919;SDS011;10122;50.074;19.920;2023-03-14T08:08:08;8.18;;;3.80;;
19919;SDS011;10122;50.074;19.920;2023-03-14T08:10:34;8.75;;;3.75;;
19919;SDS011;10122;50.074;19.920;2023-03-14T08:13:00;6.50;;;3.25;;
19919;SDS011;10122;50.074;19.920;2023-03-14T08:15:26;7.55;;;3.05;;
19919;SDS011;10122;50.074;19.920;2023-03-14T08:17:54;6.57;;;2.70;;
19919;SDS011;10122;50.074;19.920;2023-03-14T08:20:21;7.47;;;2.78;;
19919;SDS011;10122;50.074;19.920;2023-03-14T08:22:48;4.85;;;2.47;;
19919;SDS011;10122;50.074;19.920;2023-03-14T08:25:14;5.07;;;2.25;;
19919;SDS011;10122;50.074;19.920;2023-03-14T08:27:41;4.30;;;2.47;;
19919;SDS011;10122;50.074;19.920;2023-03-14T08:30:08;5.82;;;2.33;;
19919;SDS011;10122;50.074;19.920;2023-03-14T08:32:35;5.93;;;2.45;;
19919;SDS011;10122;50.074;19.920;2023-03-14T08:35:02;4.45;;;2.40;;
19919;SDS011;10122;50.074;19.920;2023-03-14T08:37:28;4.50;;;2.47;;
19919;SDS011;10122;50.074;19.920;2023-03-14T08:39:56;4.60;;;2.50;;
19919;SDS011;10122;50.074;19.920;2023-03-14T08:42:21;6.53;;;2.72;;
19919;SDS011;10122;50.074;19.920;2023-03-14T08:44:47;4.15;;;2.60;;
19919;SDS011;10122;50.074;19.920;2023-03-14T08:47:13;3.35;;;2.30;;
19919;SDS011;10122;50.074;19.920;2023-03-14T08:49:38;5.63;;;2.65;;
19919;SDS011;10122;50.074;19.920;2023-03-14T08:52:14;5.60;;;2.80;;
19919;SDS011;10122;50.074;19.920;2023-03-14T08:54:41;7.72;;;2.92;;
19919;SDS011;10122;50.074;19.920;2023-03-14T08:57:10;4.88;;;2.70;;
19919;SDS011;10122;50.074;19.920;2023-03-14T08:59:36;3.63;;;2.40;;
19919;SDS011;10122;50.074;19.920;2023-03-14T09:02:02;3.60;;;2.58;;
19919;SDS011;10122;50.074;19.920;2023-03-14T09:04:29;4.90;;;2.70;;
19919;SDS011;10122;50.074;19.920;2023-03-14T09:06:55;4.10;;;2.60;;
19919;SDS011;10122;50.074;19.920;2023-03-14T09:09:23;4.53;;;2.20;;
19919;SDS011;10122;50.074;19.920;2023-03-14T09:11:52;2.90;;;1.77;;
19919;SDS011;10122;50.074;19.920;2023-03-14T09:14:18;4.63;;;2.25;;
19919;SDS011;10122;50.074;19.920;2023-03-14T09:16:44;5.05;;;1.98;;
19919;SDS011;10122;50.074;19.920;2023-03-14T09:19:09;7.57;;;2.50;;
19919;SDS011;10122;50.074;19.920;2023-03-14T09:21:35;4.45;;;2.40;;
19919;SDS011;10122;50.074;19.920;2023-03-14T09:24:02;4.13;;;2.58;;
19919;SDS011;10122;50.074;19.920;2023-03-14T09:26:28;4.93;;;2.65;;
19919;SDS011;10122;50.074;19.920;2023-03-14T09:28:54;3.58;;;1.98;;
19919;SDS011;10122;50.074;19.920;2023-03-14T09:31:19;4.18;;;2.30;;
19919;SDS011;10122;50.074;19.920;2023-03-14T09:33:45;3.97;;;2.28;;
19919;SDS011;10122;50.074;19.920;2023-03-14T09:36:11;4.32;;;2.58;;
19919;SDS011;10122;50.074;19.920;2023-03-14T09:38:37;3.85;;;2.50;;
19919;SDS011;10122;50.074;19.920;2023-03-14T09:41:03;3.83;;;2.55;;
19919;SDS011;10122;50.074;19.920;2023-03-14T09:44:13;4.40;;;2.10;;
19919;SDS011;10122;50.074;19.920;2023-03-14T09:47:00;3.45;;;2.10;;
19919;SDS011;10122;50.074;19.920;2023-03-14T09:49:32;4.18;;;2.70;;
19919;SDS011;10122;50.074;19.920;2023-03-14T09:52:01;4.72;;;2.70;;
19919;SDS011;10122;50.074;19.920;2023-03-14T09:54:35;4.47;;;2.40;;
19919;SDS011;10122;50.074;19.920;2023-03-14T09:57:14;6.35;;;2.40;;
19919;SDS011;10122;50.074;19.920;2023-03-14T09:59:43;4.60;;;2.60;;
19919;SDS011;10122;50.074;19.920;2023-03-14T10:02:11;4.93;;;2.70;;
19919;SDS011;10122;50.074;19.920;2023-03-14T10:04:43;5.80;;;2.58;;
19919;SDS011;10122;50.074;19.920;2023-03-14T10:07:22;4.55;;;2.67;;
19919;SDS011;10122;50.074;19.920;2023-03-14T10:09:54;5.68;;;2.60;;
19919;SDS011;10122;50.074;19.920;2023-03-14T10:12:21;4.50;;;2.38;;
19919;SDS011;10122;50.074;19.920;2023-03-14T10:15:10;4.38;;;2.42;;
19919;SDS011;10122;50.074;19.920;2023-03-14T10:17:44;4.18;;;2.50;;
19919;SDS011;10122;50.074;19.920;2023-03-14T10:20:34;5.30;;;2.60;;
19919;SDS011;10122;50.074;19.920;2023-03-14T10:23:05;4.53;;;2.65;;
19919;SDS011;10122;50.074;19.920;2023-03-14T10:25:41;4.18;;;2.38;;
19919;SDS011;10122;50.074;19.920;2023-03-14T10:30:51;5.35;;;2.80;;
19919;SDS011;10122;50.074;19.920;2023-03-14T10:35:54;4.20;;;2.50;;
19919;SDS011;10122;50.074;19.920;2023-03-14T10:38:35;5.88;;;2.45;;
19919;SDS011;10122;50.074;19.920;2023-03-14T10:41:02;5.88;;;2.72;;
19919;SDS011;10122;50.074;19.920;2023-03-14T10:43:39;5.63;;;2.53;;
19919;SDS011;10122;50.074;19.920;2023-03-14T10:48:35;6.85;;;2.70;;
19919;SDS011;10122;50.074;19.920;2023-03-14T10:51:04;5.35;;;2.80;;
19919;SDS011;10122;50.074;19.920;2023-03-14T10:53:43;5.45;;;2.70;;
19919;SDS011;10122;50.074;19.920;2023-03-14T10:56:15;3.17;;;2.00;;
19919;SDS011;10122;50.074;19.920;2023-03-14T10:58:46;3.70;;;2.60;;
19919;SDS011;10122;50.074;19.920;2023-03-14T11:03:53;2.55;;;1.60;;
19919;SDS011;10122;50.074;19.920;2023-03-14T11:07:16;4.97;;;2.33;;
19919;SDS011;10122;50.074;19.920;2023-03-14T11:12:04;6.57;;;2.83;;
19919;SDS011;10122;50.074;19.920;2023-03-14T11:14:43;4.15;;;2.58;;
19919;SDS011;10122;50.074;19.920;2023-03-14T11:17:20;7.90;;;2.75;;
19919;SDS011;10122;50.074;19.920;2023-03-14T11:22:38;5.57;;;2.60;;
19919;SDS011;10122;50.074;19.920;2023-03-14T11:28:09;4.95;;;2.85;;
19919;SDS011;10122;50.074;19.920;2023-03-14T11:30:42;5.25;;;2.50;;
19919;SDS011;10122;50.074;19.920;2023-03-14T11:33:44;6.55;;;2.70;;
19919;SDS011;10122;50.074;19.920;2023-03-14T11:36:14;5.20;;;2.83;;
19919;SDS011;10122;50.074;19.920;2023-03-14T11:38:48;5.45;;;2.83;;
19919;SDS011;10122;50.074;19.920;2023-03-14T11:41:17;6.50;;;2.90;;
19919;SDS011;10122;50.074;19.920;2023-03-14T11:43:56;4.15;;;2.58;;
19919;SDS011;10122;50.074;19.920;2023-03-14T11:49:11;5.53;;;2.83;;
19919;SDS011;10122;50.074;19.920;2023-03-14T11:51:47;5.35;;;2.80;;
19919;SDS011;10122;50.074;19.920;2023-03-14T11:57:18;5.72;;;2.65;;
19919;SDS011;10122;50.074;19.920;2023-03-14T12:02:27;3.67;;;2.50;;
19919;SDS011;10122;50.074;19.920;2023-03-14T12:10:39;6.13;;;2.50;;
19919;SDS011;10122;50.074;19.920;2023-03-14T12:13:28;6.78;;;2.95;;
19919;SDS011;10122;50.074;19.920;2023-03-14T12:15:58;5.85;;;2.95;;
19919;SDS011;10122;50.074;19.920;2023-03-14T12:21:12;6.60;;;2.72;;
19919;SDS011;10122;50.074;19.920;2023-03-14T12:26:17;6.60;;;2.60;;
19919;SDS011;10122;50.074;19.920;2023-03-14T12:34:24;5.00;;;2.60;;
19919;SDS011;10122;50.074;19.920;2023-03-14T12:41:51;3.95;;;2.75;;
19919;SDS011;10122;50.074;19.920;2023-03-14T12:46:56;4.95;;;2.80;;
19919;SDS011;10122;50.074;19.920;2023-03-14T12:49:29;4.82;;;2.80;;
19919;SDS011;10122;50.074;19.920;2023-03-14T12:51:59;7.38;;;3.17;;
19919;SDS011;10122;50.074;19.920;2023-03-14T12:54:29;5.88;;;3.00;;
19919;SDS011;10122;50.074;19.920;2023-03-14T12:59:56;5.53;;;3.05;;
19919;SDS011;10122;50.074;19.920;2023-03-14T13:02:37;4.45;;;2.92;;
19919;SDS011;10122;50.074;19.920;2023-03-14T13:05:13;5.65;;;3.70;;
19919;SDS011;10122;50.074;19.920;2023-03-14T13:15:46;6.53;;;3.75;;
19919;SDS011;10122;50.074;19.920;2023-03-14T13:18:17;6.50;;;3.50;;
19919;SDS011;10122;50.074;19.920;2023-03-14T13:20:59;7.20;;;3.70;;
19919;SDS011;10122;50.074;19.920;2023-03-14T13:26:46;8.80;;;4.10;;
19919;SDS011;10122;50.074;19.920;2023-03-14T13:31:54;6.72;;;3.58;;
19919;SDS011;10122;50.074;19.920;2023-03-14T13:34:31;6.20;;;3.28;;
19919;SDS011;10122;50.074;19.920;2023-03-14T13:36:58;3.97;;;2.08;;
19919;SDS011;10122;50.074;19.920;2023-03-14T13:39:25;5.57;;;2.75;;
19919;SDS011;10122;50.074;19.920;2023-03-14T13:41:53;5.07;;;2.30;;
19919;SDS011;10122;50.074;19.920;2023-03-14T13:44:33;4.82;;;2.70;;
19919;SDS011;10122;50.074;19.920;2023-03-14T13:47:02;3.47;;;2.40;;
19919;SDS011;10122;50.074;19.920;2023-03-14T13:49:29;5.15;;;2.88;;
19919;SDS011;10122;50.074;19.920;2023-03-14T13:52:00;6.93;;;2.85;;
19919;SDS011;10122;50.074;19.920;2023-03-14T13:54:27;4.70;;;2.80;;
19919;SDS011;10122;50.074;19.920;2023-03-14T13:57:00;4.00;;;2.30;;
19919;SDS011;10122;50.074;19.920;2023-03-14T13:59:31;4.47;;;2.53;;
19919;SDS011;10122;50.074;19.920;2023-03-14T14:01:59;3.90;;;2.50;;
19919;SDS011;10122;50.074;19.920;2023-03-14T14:04:30;5.20;;;2.70;;
19919;SDS011;10122;50.074;19.920;2023-03-14T14:07:00;5.90;;;2.33;;
19919;SDS011;10122;50.074;19.920;2023-03-14T14:09:37;5.13;;;2.55;;
19919;SDS011;10122;50.074;19.920;2023-03-14T14:12:05;3.85;;;2.05;;
19919;SDS011;10122;50.074;19.920;2023-03-14T14:14:53;5.10;;;3.00;;
19919;SDS011;10122;50.074;19.920;2023-03-14T14:17:21;7.30;;;2.90;;
19919;SDS011;10122;50.074;19.920;2023-03-14T14:20:14;4.65;;;2.85;;
19919;SDS011;10122;50.074;19.920;2023-03-14T14:22:47;6.18;;;2.85;;
19919;SDS011;10122;50.074;19.920;2023-03-14T14:25:14;5.70;;;3.20;;
19919;SDS011;10122;50.074;19.920;2023-03-14T14:27:42;6.15;;;3.38;;
19919;SDS011;10122;50.074;19.920;2023-03-14T14:32:43;6.20;;;3.25;;
19919;SDS011;10122;50.074;19.920;2023-03-14T14:35:21;5.13;;;3.00;;
19919;SDS011;10122;50.074;19.920;2023-03-14T14:38:00;6.38;;;3.13;;
19919;SDS011;10122;50.074;19.920;2023-03-14T14:40:27;4.28;;;2.97;;
19919;SDS011;10122;50.074;19.920;2023-03-14T14:42:55;5.90;;;2.85;;
19919;SDS011;10122;50.074;19.920;2023-03-14T14:45:28;6.10;;;2.90;;
19919;SDS011;10122;50.074;19.920;2023-03-14T14:47:55;4.32;;;2.72;;
19919;SDS011;10122;50.074;19.920;2023-03-14T14:50:33;3.65;;;2.50;;
19919;SDS011;10122;50.074;19.920;2023-03-14T14:53:19;3.72;;;2.70;;
19919;SDS011;10122;50.074;19.920;2023-03-14T14:55:52;5.20;;;2.58;;
19919;SDS011;10122;50.074;19.920;2023-03-14T15:01:11;4.65;;;2.70;;
19919;SDS011;10122;50.074;19.920;2023-03-14T15:03:41;3.22;;;2.28;;
19919;SDS011;10122;50.074;19.920;2023-03-14T15:06:12;3.95;;;2.47;;
19919;SDS011;10122;50.074;19.920;2023-03-14T15:08:40;4.90;;;2.40;;
19919;SDS011;10122;50.074;19.920;2023-03-14T15:11:10;5.25;;;2.58;;
19919;SDS011;10122;50.074;19.920;2023-03-14T15:13:43;4.18;;;2.40;;
19919;SDS011;10122;50.074;19.920;2023-03-14T15:16:10;4.32;;;2.50;;
19919;SDS011;10122;50.074;19.920;2023-03-14T15:18:37;5.13;;;2.63;;
19919;SDS011;10122;50.074;19.920;2023-03-14T15:21:03;5.60;;;2.60;;
19919;SDS011;10122;50.074;19.920;2023-03-14T15:23:29;4.25;;;2.47;;
19919;SDS011;10122;50.074;19.920;2023-03-14T15:25:55;7.35;;;2.70;;
19919;SDS011;10122;50.074;19.920;2023-03-14T15:28:21;4.00;;;1.85;;
19919;SDS011;10122;50.074;19.920;2023-03-14T15:30:52;4.78;;;2.70;;
19919;SDS011;10122;50.074;19.920;2023-03-14T15:33:20;3.83;;;2.47;;
19919;SDS011;10122;50.074;19.920;2023-03-14T15:35:47;4.22;;;2.45;;
19919;SDS011;10122;50.074;19.920;2023-03-14T15:38:14;4.78;;;2.70;;
19919;SDS011;10122;50.074;19.920;2023-03-14T15:40:42;5.20;;;2.70;;
19919;SDS011;10122;50.074;19.920;2023-03-14T15:43:08;6.07;;;3.00;;
19919;SDS011;10122;50.074;19.920;2023-03-14T15:45:34;6.28;;;3.10;;
19919;SDS011;10122;50.074;19.920;2023-03-14T15:48:00;5.28;;;2.80;;
19919;SDS011;10122;50.074;19.920;2023-03-14T15:50:26;4.75;;;3.08;;
19919;SDS011;10122;50.074;19.920;2023-03-14T15:52:52;4.75;;;2.58;;
19919;SDS011;10122;50.074;19.920;2023-03-14T15:55:17;4.18;;;2.60;;
19919;SDS011;10122;50.074;19.920;2023-03-14T15:57:43;3.75;;;2.60;;
19919;SDS011;10122;50.074;19.920;2023-03-14T16:00:14;5.22;;;2.75;;